Ana Sayfa
METAR-TAF:

METAR-TAF

Havaalanları :

Monclova, Meksika

Enlem: 26-53N, Boylam: 101-25W, yükseklik: 615 m

Güncel hava durumu gözlemi

Rapor saat 19:40 UTC de 1 saat ve 6 dakika önce yapıldı.
Rüzgar kuzey/kuzeydoğudan 13 kt
Sıcaklık 34°C
Nem 26%
Basınç 1013 hPa
Görüş mesafesi: 16.1 km
Açık gökyüzü

METAR: MMMV 191940Z 02013KT 10SM SKC 34/12 A2991

Saat: 15:46 (20:46 UTC)

Tahmin

Rapor saat 16:22 UTC de 4 saat ve 24 dakika önce yapıldı.
Ayın 19'si saat 18 UTC'den ayın 20'si saat 18 UTC'ye kadar geçerli Tahmin
Rüzgar doğu/kuzeydoğudan 12 kt
Görüş mesafesi: 10 km
4000 ft yükseklikte parçalı bulutlu
Ayın 20'si saat 0300 UTC'den
Rüzgar doğudan 10 kt
Görüş mesafesi: 10 km
25000 ft yükseklikte parçalı bulutlu

TAF: MMMV 191622Z 1918/2018 06012KT P6SM SCT040 FM200300 09010KT P6SM SCT250

4.000'den fazla havaalanı için hava durumu gözlemleri ve tahminleri (METAR ve TAF raporları).

Kullanılabilir istasyonlar harita üzerinde sarı ve kırmızı noktalarla gösterilir.

İstasyonun adını görmek için fareyi noktanın üzerinde gezdirin.

Sonrasında hava gözlem ve tahminlerini görmek için tıklayın.

Haritayı değiştirmek için: yaklaştırmak için siyah artı işaretli yeşil düğmeye ve uzaklaştırmak için de eksi işaretli düğmeye hızla tıklayın; bitişik haritalar için yeşil okları kullanın.


METAR-TAF: